Time;durP1;ratioP1;P1;durP2;ratioP2;P2;SDS_P1;SDS_P2;PMS_P1;PMS_P2;Temp;Humidity;BMP_temperature;BMP_pressure;BME280_temperature;BME280_humidity;BME280_pressure;Samples;Min_cycle;Max_cycle;Signal;HPM_P1;HPM_P2
2023/07/30 00:01:16;;;;;;;2.65;1.58;;;24.30;61.40;;;;;;6112410;29;20027;-78
2023/07/30 00:04:17;;;;;;;4.47;1.65;;;24.40;61.50;;;;;;6129181;29;20031;-78
2023/07/30 00:07:17;;;;;;;2.78;1.95;;;24.30;61.40;;;;;;6129475;29;20113;-79
2023/07/30 00:10:18;;;;;;;3.95;1.77;;;24.40;61.50;;;;;;6111452;29;20031;-80
2023/07/30 00:13:19;;;;;;;3.20;2.05;;;24.40;61.60;;;;;;6111134;29;20046;-80
2023/07/30 00:16:20;;;;;;;5.35;2.03;;;24.40;61.50;;;;;;6112817;29;20084;-78
2023/07/30 00:19:20;;;;;;;15.63;1.88;;;24.50;61.60;;;;;;6111787;29;20083;-80
2023/07/30 00:22:21;;;;;;;3.13;1.95;;;24.50;61.80;;;;;;6129161;29;20159;-78
2023/07/30 00:25:22;;;;;;;5.10;1.85;;;24.40;62.10;;;;;;6124930;29;20036;-78
2023/07/30 00:28:23;;;;;;;2.97;1.80;;;24.40;62.50;;;;;;6142745;29;20051;-79
2023/07/30 00:31:23;;;;;;;3.75;1.70;;;24.40;63.50;;;;;;6128824;29;20155;-78
2023/07/30 00:34:24;;;;;;;3.42;1.85;;;24.30;62.80;;;;;;6112532;29;20059;-80
2023/07/30 00:37:26;;;;;;;4.30;2.10;;;24.40;62.50;;;;;;6127499;29;20087;-78
2023/07/30 00:40:27;;;;;;;5.95;2.20;;;24.30;63.20;;;;;;6111988;29;20141;-78
2023/07/30 00:43:28;;;;;;;6.28;2.63;;;24.30;63.60;;;;;;6111714;29;20201;-78
2023/07/30 00:46:29;;;;;;;5.95;1.77;;;24.20;64.00;;;;;;6112360;29;20043;-79
2023/07/30 00:49:32;;;;;;;3.38;2.28;;;24.10;64.20;;;;;;6112274;29;20243;-78
2023/07/30 00:52:33;;;;;;;8.35;3.08;;;24.10;64.50;;;;;;6110450;29;20535;-78
2023/07/30 00:55:35;;;;;;;10.27;2.95;;;24.10;64.90;;;;;;6127864;29;20040;-78
2023/07/30 00:58:36;;;;;;;5.68;2.55;;;24.10;65.20;;;;;;6110680;29;20040;-79
2023/07/30 01:01:40;;;;;;;7.32;2.85;;;24.10;65.60;;;;;;6112009;29;20127;-79
2023/07/30 01:04:42;;;;;;;6.00;3.25;;;24.10;66.00;;;;;;6110689;29;20042;-77
2023/07/30 01:07:43;;;;;;;5.70;2.63;;;24.00;66.40;;;;;;6109133;29;20035;-78
2023/07/30 01:10:44;;;;;;;9.23;3.10;;;24.00;66.50;;;;;;6110797;29;20032;-78
2023/07/30 01:13:45;;;;;;;5.60;2.38;;;24.00;66.60;;;;;;6112033;29;20058;-79
2023/07/30 01:16:46;;;;;;;3.13;2.30;;;24.00;66.80;;;;;;6109580;29;20178;-78
2023/07/30 01:19:49;;;;;;;5.38;2.03;;;23.80;66.60;;;;;;6126346;29;20035;-78
2023/07/30 01:22:50;;;;;;;5.90;2.75;;;24.10;66.60;;;;;;6121024;29;20034;-78
2023/07/30 01:26:00;;;;;;;7.93;2.45;;;24.00;66.40;;;;;;6110430;29;20059;-79
2023/07/30 01:29:06;;;;;;;10.18;3.40;;;24.00;66.40;;;;;;6111224;29;20043;-79
2023/07/30 01:32:10;;;;;;;3.95;2.80;;;24.00;66.20;;;;;;6111313;29;20040;-79
2023/07/30 01:35:13;;;;;;;9.40;3.38;;;24.00;66.10;;;;;;6102062;29;20051;-77
2023/07/30 01:38:14;;;;;;;7.50;3.00;;;24.00;66.00;;;;;;6087347;29;20052;-78
2023/07/30 01:41:16;;;;;;;4.85;2.25;;;24.00;66.00;;;;;;6087794;29;20036;-77
2023/07/30 01:44:16;;;;;;;4.57;2.22;;;24.00;65.90;;;;;;6086314;29;20362;-77
2023/07/30 01:47:17;;;;;;;3.78;2.15;;;24.00;65.70;;;;;;6086109;29;20036;-78
2023/07/30 01:50:18;;;;;;;4.20;2.55;;;24.00;65.50;;;;;;6103763;29;20311;-77
2023/07/30 01:53:19;;;;;;;10.05;2.70;;;24.00;65.30;;;;;;6101290;29;20036;-78
2023/07/30 01:56:20;;;;;;;4.68;1.90;;;24.00;65.00;;;;;;6084583;29;20029;-78
2023/07/30 01:59:21;;;;;;;5.40;2.42;;;23.60;64.70;;;;;;6084570;29;20095;-79
2023/07/30 02:02:22;;;;;;;8.80;2.08;;;24.00;64.80;;;;;;6099620;29;20035;-79
2023/07/30 02:05:24;;;;;;;4.22;1.70;;;24.10;64.70;;;;;;6101439;29;20032;-77
2023/07/30 02:08:25;;;;;;;12.02;2.65;;;24.10;64.60;;;;;;6100352;29;20031;-77
2023/07/30 02:11:26;;;;;;;4.00;2.17;;;24.10;64.50;;;;;;6083751;29;20529;-79
2023/07/30 02:14:27;;;;;;;3.05;1.75;;;24.10;64.50;;;;;;6084348;29;20485;-78
2023/07/30 02:17:28;;;;;;;6.55;2.20;;;24.10;64.30;;;;;;6100622;29;20028;-78
2023/07/30 02:20:29;;;;;;;6.10;1.92;;;24.20;64.30;;;;;;6101208;29;20107;-78
2023/07/30 02:23:29;;;;;;;5.70;2.08;;;24.20;64.10;;;;;;6109350;29;20023;-78
2023/07/30 02:26:30;;;;;;;8.40;2.13;;;24.20;63.90;;;;;;6109666;29;20039;-78
2023/07/30 02:29:31;;;;;;;3.15;2.10;;;24.20;63.90;;;;;;6128340;29;20063;-78
2023/07/30 02:32:32;;;;;;;6.60;2.40;;;24.10;63.70;;;;;;6110628;29;20036;-78
2023/07/30 02:35:33;;;;;;;10.02;3.08;;;24.10;63.70;;;;;;6093078;29;20492;-79
2023/07/30 02:38:33;;;;;;;13.73;7.45;;;24.10;63.80;;;;;;6109647;29;20032;-79
2023/07/30 02:41:35;;;;;;;13.48;6.78;;;24.10;64.20;;;;;;6108952;29;20051;-78
2023/07/30 02:44:36;;;;;;;10.20;5.13;;;24.00;64.40;;;;;;6109557;29;20054;-78
2023/07/30 02:47:37;;;;;;;7.13;3.60;;;23.90;64.40;;;;;;6110003;29;20099;-79
2023/07/30 02:50:38;;;;;;;5.07;2.47;;;24.00;64.60;;;;;;6108102;29;20086;-77
2023/07/30 02:53:39;;;;;;;4.70;2.35;;;24.10;64.50;;;;;;6103163;29;20493;-77
2023/07/30 02:56:40;;;;;;;4.57;1.67;;;24.10;64.20;;;;;;6124203;29;20036;-77
2023/07/30 02:59:41;;;;;;;6.22;1.95;;;24.00;64.00;;;;;;6124760;29;20445;-80
2023/07/30 03:02:41;;;;;;;3.22;1.83;;;24.00;63.70;;;;;;6125494;29;20063;-79
2023/07/30 03:05:43;;;;;;;3.47;2.05;;;24.00;63.40;;;;;;6124506;29;20071;-80
2023/07/30 03:08:44;;;;;;;4.60;2.40;;;23.90;63.40;;;;;;6125286;29;20036;-79
2023/07/30 03:11:44;;;;;;;2.42;1.88;;;23.90;63.50;;;;;;6124462;29;20043;-77
2023/07/30 03:14:45;;;;;;;3.05;2.10;;;23.80;63.60;;;;;;6107702;29;20511;-78
2023/07/30 03:17:46;;;;;;;3.47;1.83;;;23.80;63.80;;;;;;6108024;29;20357;-78
2023/07/30 03:20:47;;;;;;;3.60;1.73;;;23.70;63.80;;;;;;6125826;29;20142;-78
2023/07/30 03:23:48;;;;;;;6.88;1.88;;;23.70;64.00;;;;;;6111457;29;20032;-80
2023/07/30 03:26:49;;;;;;;5.43;1.88;;;23.60;64.10;;;;;;6125071;29;20091;-79
2023/07/30 03:29:49;;;;;;;3.85;1.65;;;23.60;64.30;;;;;;6108898;29;20082;-78
2023/07/30 03:32:50;;;;;;;8.63;1.60;;;23.60;64.40;;;;;;6108087;29;20031;-77
2023/07/30 03:35:51;;;;;;;6.25;1.98;;;23.60;64.40;;;;;;6106065;29;20032;-78
2023/07/30 03:38:52;;;;;;;3.03;1.85;;;23.50;64.30;;;;;;6124089;29;20094;-78
2023/07/30 03:41:52;;;;;;;4.82;2.35;;;23.50;64.40;;;;;;6108092;29;20074;-78
2023/07/30 03:44:53;;;;;;;2.30;1.55;;;23.40;64.30;;;;;;6109431;29;20082;-78
2023/07/30 03:47:54;;;;;;;5.03;2.13;;;23.40;64.30;;;;;;6112785;29;20077;-79
2023/07/30 03:50:55;;;;;;;10.10;2.05;;;23.30;64.50;;;;;;6114383;29;20544;-78
2023/07/30 03:53:56;;;;;;;6.65;3.17;;;23.30;64.50;;;;;;6128848;29;20130;-78
2023/07/30 03:56:57;;;;;;;7.60;1.95;;;23.30;64.80;;;;;;6113303;29;20149;-78
2023/07/30 03:59:58;;;;;;;2.35;1.90;;;23.30;64.80;;;;;;6112916;29;20146;-78
2023/07/30 04:02:58;;;;;;;3.33;2.20;;;23.20;64.90;;;;;;6130563;29;20103;-78
2023/07/30 04:05:59;;;;;;;3.60;2.22;;;23.20;65.10;;;;;;6113134;29;20461;-78
2023/07/30 04:09:00;;;;;;;6.85;2.20;;;23.20;65.20;;;;;;6128771;29;20046;-77
2023/07/30 04:12:01;;;;;;;3.63;2.38;;;23.10;65.30;;;;;;6111395;29;20123;-79
2023/07/30 04:15:02;;;;;;;6.35;2.78;;;23.10;65.40;;;;;;6111293;29;20412;-78
2023/07/30 04:18:03;;;;;;;8.80;2.53;;;23.20;65.40;;;;;;6129142;29;20035;-77
2023/07/30 04:21:04;;;;;;;2.47;2.10;;;23.10;65.30;;;;;;6110640;29;20112;-78
2023/07/30 04:24:04;;;;;;;3.47;2.38;;;23.10;65.40;;;;;;6110636;29;20084;-79
2023/07/30 04:27:05;;;;;;;5.20;2.50;;;23.10;65.50;;;;;;6111665;29;20106;-78
2023/07/30 04:30:07;;;;;;;3.75;2.05;;;23.10;65.50;;;;;;6105460;29;20048;-79
2023/07/30 04:33:08;;;;;;;3.83;2.50;;;23.10;65.50;;;;;;6104735;29;20047;-79
2023/07/30 04:36:11;;;;;;;4.40;2.25;;;23.10;65.60;;;;;;6102836;29;20127;-78
2023/07/30 04:39:12;;;;;;;3.70;2.30;;;23.10;65.80;;;;;;6104512;29;20051;-79
2023/07/30 04:42:15;;;;;;;2.95;1.88;;;23.10;65.70;;;;;;6103209;29;20063;-79
2023/07/30 04:45:16;;;;;;;2.33;1.90;;;23.10;65.70;;;;;;6102705;29;20447;-77
2023/07/30 04:48:20;;;;;;;7.78;2.10;;;23.10;65.70;;;;;;6103296;29;20032;-78
2023/07/30 04:51:21;;;;;;;3.60;2.40;;;23.10;65.60;;;;;;6102353;29;20047;-76
2023/07/30 04:54:22;;;;;;;3.70;2.08;;;23.10;65.50;;;;;;6102301;29;20358;-79
2023/07/30 04:57:23;;;;;;;6.47;2.20;;;23.10;65.50;;;;;;6098827;29;20100;-78
2023/07/30 05:00:23;;;;;;;7.47;2.45;;;23.10;66.40;;;;;;6098605;29;20040;-78
2023/07/30 05:03:25;;;;;;;10.15;2.83;;;23.10;65.60;;;;;;6099090;29;20055;-77
2023/07/30 05:06:26;;;;;;;3.17;1.85;;;23.10;65.70;;;;;;6098115;29;20032;-79
2023/07/30 05:09:26;;;;;;;3.17;2.20;;;23.20;65.80;;;;;;6099386;29;20202;-78
2023/07/30 05:12:27;;;;;;;2.92;1.95;;;23.20;65.70;;;;;;6099937;29;20055;-77
2023/07/30 05:15:28;;;;;;;5.20;2.63;;;23.20;65.70;;;;;;6101412;29;20060;-78
2023/07/30 05:18:29;;;;;;;6.63;2.20;;;23.20;65.70;;;;;;6102423;29;20058;-78
2023/07/30 05:21:30;;;;;;;3.63;2.10;;;23.20;65.50;;;;;;6110229;29;20122;-79
2023/07/30 05:24:31;;;;;;;3.30;2.10;;;23.20;65.30;;;;;;6128647;29;20485;-77
2023/07/30 05:27:32;;;;;;;4.00;1.98;;;23.30;65.10;;;;;;6110662;29;20043;-78
2023/07/30 05:30:33;;;;;;;6.82;2.55;;;23.30;64.90;;;;;;6128491;29;20130;-79
2023/07/30 05:33:33;;;;;;;3.97;2.20;;;23.30;64.70;;;;;;6109356;29;20118;-78
2023/07/30 05:36:34;;;;;;;3.70;1.85;;;23.30;64.50;;;;;;6110286;29;20035;-79
2023/07/30 05:39:35;;;;;;;3.08;1.70;;;23.30;64.60;;;;;;6110427;29;20042;-77
2023/07/30 05:42:36;;;;;;;4.88;2.35;;;23.30;64.30;;;;;;6128497;29;20145;-78
2023/07/30 05:45:37;;;;;;;4.10;2.13;;;23.30;64.10;;;;;;6095669;29;20099;-78
2023/07/30 05:48:38;;;;;;;5.28;2.72;;;23.30;64.00;;;;;;6125919;29;20024;-77
2023/07/30 05:51:38;;;;;;;3.65;1.90;;;23.30;64.00;;;;;;6107268;29;20028;-77
2023/07/30 05:54:39;;;;;;;4.78;2.25;;;23.20;63.90;;;;;;6125339;29;20405;-78
2023/07/30 05:57:40;;;;;;;4.68;2.03;;;23.20;64.00;;;;;;6125139;29;20040;-78
2023/07/30 06:00:41;;;;;;;4.05;1.90;;;23.20;64.00;;;;;;6123750;29;20031;-77
2023/07/30 06:03:42;;;;;;;9.00;2.25;;;23.30;64.10;;;;;;6124828;29;20031;-78
2023/07/30 06:06:42;;;;;;;5.30;2.22;;;23.30;63.90;;;;;;6125069;29;20377;-78
2023/07/30 06:09:45;;;;;;;3.00;1.90;;;23.40;63.70;;;;;;6123966;29;20753;-79
2023/07/30 06:12:46;;;;;;;5.57;2.60;;;23.40;63.50;;;;;;6124870;29;20035;-77
2023/07/30 06:15:47;;;;;;;4.15;2.35;;;23.50;63.30;;;;;;6125065;29;20043;-79
2023/07/30 06:18:47;;;;;;;4.65;2.40;;;23.50;63.20;;;;;;6127355;29;20031;-79
2023/07/30 06:21:48;;;;;;;6.13;2.40;;;23.50;63.00;;;;;;6126918;29;20092;-77
2023/07/30 06:24:52;;;;;;;5.07;2.42;;;23.50;62.90;;;;;;6109673;29;20024;-79
2023/07/30 06:27:54;;;;;;;5.38;2.92;;;23.70;62.90;;;;;;6109583;29;20125;-78
2023/07/30 06:30:54;;;;;;;7.30;2.65;;;23.60;62.60;;;;;;6109416;29;20028;-78
2023/07/30 06:33:55;;;;;;;8.85;2.75;;;23.80;62.60;;;;;;6109305;29;20054;-78
2023/07/30 06:36:56;;;;;;;6.35;2.60;;;23.90;62.30;;;;;;6108027;29;20454;-78
2023/07/30 06:39:57;;;;;;;3.58;2.38;;;24.10;62.10;;;;;;6107883;29;20039;-79
2023/07/30 06:42:57;;;;;;;2.67;2.10;;;24.20;61.50;;;;;;6093145;29;20039;-78
2023/07/30 06:45:58;;;;;;;3.28;2.38;;;24.40;61.10;;;;;;6125394;29;20042;-77
2023/07/30 06:48:59;;;;;;;5.05;2.88;;;24.50;60.50;;;;;;6107915;29;20469;-78
2023/07/30 06:52:00;;;;;;;3.20;2.10;;;24.80;60.40;;;;;;6109077;29;20069;-79
2023/07/30 06:55:05;;;;;;;3.72;2.50;;;24.70;60.10;;;;;;6126289;29;20459;-77
2023/07/30 06:58:06;;;;;;;4.18;2.20;;;24.80;59.80;;;;;;6125397;29;20032;-79
2023/07/30 07:01:07;;;;;;;3.47;2.55;;;24.90;59.60;;;;;;6108494;29;20031;-77
2023/07/30 07:04:07;;;;;;;4.47;2.42;;;25.00;59.60;;;;;;6126063;29;20034;-79
2023/07/30 07:07:09;;;;;;;2.63;2.10;;;25.00;59.50;;;;;;6108082;29;20532;-78
2023/07/30 07:10:12;;;;;;;7.38;2.80;;;25.10;59.30;;;;;;6110256;29;20028;-79
2023/07/30 07:13:15;;;;;;;4.78;1.92;;;25.30;59.10;;;;;;6101394;29;20223;-78
2023/07/30 07:16:15;;;;;;;3.50;2.10;;;25.50;58.60;;;;;;6102302;29;20040;-76
2023/07/30 07:19:16;;;;;;;4.95;2.60;;;25.60;58.30;;;;;;6100933;29;20044;-77
2023/07/30 07:22:18;;;;;;;4.75;2.33;;;25.70;58.00;;;;;;6097202;29;20784;-78
2023/07/30 07:25:20;;;;;;;3.35;2.70;;;25.80;57.90;;;;;;6112762;29;20032;-78
2023/07/30 07:28:21;;;;;;;6.68;2.70;;;25.80;57.60;;;;;;6111939;29;20050;-78
2023/07/30 07:31:22;;;;;;;6.63;3.03;;;25.90;57.50;;;;;;6129767;29;20036;-77
2023/07/30 07:34:23;;;;;;;11.73;2.50;;;25.80;57.30;;;;;;6112757;29;20039;-77
2023/07/30 07:37:24;;;;;;;7.55;2.67;;;25.80;57.30;;;;;;6129752;29;20038;-76
2023/07/30 07:40:24;;;;;;;6.38;2.38;;;25.90;57.50;;;;;;6130241;29;20032;-77
2023/07/30 07:43:26;;;;;;;3.33;2.17;;;25.90;57.40;;;;;;6096780;29;20054;-77
2023/07/30 07:46:27;;;;;;;4.68;2.42;;;26.00;57.40;;;;;;6129467;29;20067;-77
2023/07/30 07:49:28;;;;;;;3.75;2.45;;;26.10;57.30;;;;;;6113529;29;20146;-79
2023/07/30 07:52:28;;;;;;;4.82;2.65;;;26.20;57.20;;;;;;6111587;29;20039;-77
2023/07/30 07:55:29;;;;;;;5.78;2.70;;;26.30;57.00;;;;;;6111177;29;20028;-78
2023/07/30 07:58:31;;;;;;;3.80;2.60;;;26.40;56.80;;;;;;6113179;29;20048;-76
2023/07/30 08:01:31;;;;;;;4.32;2.40;;;26.40;56.70;;;;;;6111454;29;20055;-76
2023/07/30 08:04:32;;;;;;;8.85;2.65;;;26.50;56.60;;;;;;6129302;29;20178;-78
2023/07/30 08:07:33;;;;;;;4.38;2.42;;;26.50;56.50;;;;;;6110369;29;20133;-78
2023/07/30 08:10:39;;;;;;;7.10;2.78;;;26.60;56.60;;;;;;6111926;29;20040;-76
2023/07/30 08:13:40;;;;;;;4.00;2.25;;;26.70;56.60;;;;;;6129940;29;20158;-77
2023/07/30 08:16:40;;;;;;;7.63;2.42;;;26.80;56.40;;;;;;6128851;29;20027;-78
2023/07/30 08:19:41;;;;;;;4.15;1.80;;;26.90;56.10;;;;;;6115732;29;20091;-77
2023/07/30 08:22:42;;;;;;;2.28;1.50;;;27.00;56.00;;;;;;6133487;29;20040;-78
2023/07/30 08:25:43;;;;;;;2.58;1.55;;;27.10;54.90;;;;;;6111346;29;20063;-77
2023/07/30 08:28:44;;;;;;;2.10;1.30;;;27.20;53.80;;;;;;6110885;29;20032;-77
2023/07/30 08:31:44;;;;;;;2.80;1.80;;;27.40;53.30;;;;;;6127719;29;20035;-77
2023/07/30 08:34:45;;;;;;;2.40;1.80;;;27.50;52.80;;;;;;6110121;29;20413;-80
2023/07/30 08:37:46;;;;;;;3.38;2.30;;;27.60;52.50;;;;;;6109647;29;20046;-78
2023/07/30 08:40:47;;;;;;;3.00;2.22;;;27.70;52.70;;;;;;6096158;29;20453;-77
2023/07/30 08:43:48;;;;;;;5.38;2.38;;;27.90;52.80;;;;;;6102926;29;20458;-76
2023/07/30 08:46:49;;;;;;;9.55;2.60;;;28.00;52.70;;;;;;6086873;29;20141;-78
2023/07/30 08:49:50;;;;;;;8.40;2.47;;;28.10;52.60;;;;;;6104762;29;20069;-77
2023/07/30 08:52:52;;;;;;;4.63;2.75;;;28.20;52.60;;;;;;6099013;29;20042;-79
2023/07/30 08:55:54;;;;;;;5.28;2.60;;;28.20;52.40;;;;;;6110944;29;20036;-78
2023/07/30 08:58:57;;;;;;;2.40;2.03;;;28.30;52.20;;;;;;6112102;29;20052;-77
2023/07/30 09:01:59;;;;;;;3.58;2.30;;;28.40;52.20;;;;;;6129175;29;20023;-78
2023/07/30 09:05:01;;;;;;;2.80;2.13;;;28.40;52.00;;;;;;6129410;29;20031;-78
2023/07/30 09:08:02;;;;;;;2.78;2.17;;;28.50;52.00;;;;;;6111644;29;20062;-77
2023/07/30 09:11:10;;;;;;;3.85;2.30;;;28.60;51.80;;;;;;6128848;29;20126;-79
2023/07/30 09:14:11;;;;;;;;;;;28.70;51.60;;;;;;6129926;29;20738;-78
2023/07/30 09:17:17;;;;;;;3.05;2.33;;;28.80;51.30;;;;;;6129541;29;19935;-78
2023/07/30 09:20:18;;;;;;;6.60;2.65;;;28.80;51.10;;;;;;6111926;29;20099;-77
2023/07/30 09:23:19;;;;;;;3.88;2.72;;;28.70;51.10;;;;;;6128796;29;20163;-78
2023/07/30 09:26:20;;;;;;;2.58;2.13;;;28.70;51.30;;;;;;6111055;29;20031;-78
2023/07/30 09:29:21;;;;;;;4.25;2.40;;;28.80;51.40;;;;;;6128325;29;20031;-77
2023/07/30 09:32:30;;;;;;;5.25;2.72;;;28.80;51.30;;;;;;6095783;29;20047;-78
2023/07/30 09:35:33;;;;;;;3.22;2.40;;;28.90;51.30;;;;;;6128922;29;20051;-79
2023/07/30 09:38:42;;;;;;;5.80;2.42;;;29.00;51.30;;;;;;6096351;29;20096;-78
2023/07/30 09:41:43;;;;;;;5.70;2.47;;;29.10;51.00;;;;;;6095493;29;20134;-78
2023/07/30 09:44:47;;;;;;;3.63;2.47;;;29.20;50.90;;;;;;6111406;29;20036;-78
2023/07/30 09:47:50;;;;;;;4.25;1.80;;;29.30;50.50;;;;;;6128280;29;20173;-79
2023/07/30 09:50:51;;;;;;;4.78;2.05;;;29.30;50.00;;;;;;6109018;29;20378;-77
2023/07/30 09:53:52;;;;;;;3.45;1.85;;;29.30;49.60;;;;;;6110834;29;20065;-79
2023/07/30 09:56:53;;;;;;;1.50;1.38;;;29.30;49.20;;;;;;6109200;29;20103;-78
2023/07/30 09:59:54;;;;;;;1.52;1.33;;;29.30;49.10;;;;;;6109176;29;20036;-79
2023/07/30 10:02:57;;;;;;;2.58;1.70;;;29.30;48.60;;;;;;6109780;29;20151;-79
2023/07/30 10:06:04;;;;;;;3.00;1.58;;;29.30;48.60;;;;;;6126916;29;20053;-78
2023/07/30 10:09:07;;;;;;;1.52;1.15;;;29.30;48.30;;;;;;6109942;29;20039;-79
2023/07/30 10:12:08;;;;;;;2.13;1.55;;;29.30;48.20;;;;;;6110557;29;20520;-78
2023/07/30 10:15:09;;;;;;;3.72;1.73;;;29.30;48.10;;;;;;6108826;29;20647;-77
2023/07/30 10:18:10;;;;;;;2.47;2.00;;;29.40;47.80;;;;;;6124530;29;20059;-78
2023/07/30 10:21:22;;;;;;;2.25;1.60;;;29.30;47.50;;;;;;6109713;29;20035;-77
2023/07/30 10:24:25;;;;;;;3.80;1.77;;;29.30;46.80;;;;;;6100091;29;20205;-78
2023/07/30 10:27:35;;;;;;;2.55;1.70;;;29.30;47.40;;;;;;6127531;29;20337;-77
2023/07/30 10:30:35;;;;;;;2.20;1.52;;;29.30;47.10;;;;;;6093883;29;20154;-77
2023/07/30 10:33:49;;;;;;;2.15;1.73;;;29.30;47.00;;;;;;6110008;29;20047;-78
2023/07/30 10:36:50;;;;;;;3.42;1.65;;;29.30;46.50;;;;;;6127286;29;20188;-77
2023/07/30 10:39:51;;;;;;;4.72;1.45;;;29.40;46.30;;;;;;6127069;29;20339;-81
2023/07/30 10:42:51;;;;;;;2.80;1.58;;;29.40;45.80;;;;;;6095109;29;20095;-78
2023/07/30 10:45:52;;;;;;;2.55;1.83;;;29.40;45.50;;;;;;6127425;29;20482;-77
2023/07/30 10:48:54;;;;;;;2.10;1.67;;;29.50;45.30;;;;;;6109786;29;20051;-77
2023/07/30 10:51:59;;;;;;;2.47;1.65;;;29.50;45.20;;;;;;6126668;29;20019;-77
2023/07/30 10:55:01;;;;;;;2.63;1.50;;;29.60;45.20;;;;;;6108685;29;20036;-78
2023/07/30 10:58:01;;;;;;;1.98;1.52;;;29.70;45.10;;;;;;6126073;29;20422;-76
2023/07/30 11:01:07;;;;;;;1.55;1.45;;;29.80;44.90;;;;;;6110335;29;20049;-78
2023/07/30 11:04:17;;;;;;;3.83;1.25;;;29.80;44.40;;;;;;6101946;29;20055;-78
2023/07/30 11:07:20;;;;;;;3.97;1.75;;;30.20;43.80;;;;;;6100431;29;20036;-79
2023/07/30 11:10:21;;;;;;;5.95;1.50;;;30.50;43.00;;;;;;6083817;29;20039;-78
2023/07/30 11:13:22;;;;;;;1.90;1.50;;;30.80;42.40;;;;;;6086298;29;20076;-78
2023/07/30 11:16:23;;;;;;;3.78;1.45;;;31.30;41.60;;;;;;6104341;29;20342;-78
2023/07/30 11:19:24;;;;;;;7.88;1.33;;;31.80;40.90;;;;;;6086300;29;20064;-78
2023/07/30 11:22:32;;;;;;;2.47;1.50;;;32.20;40.10;;;;;;6085648;29;20028;-78
2023/07/30 11:25:33;;;;;;;1.48;1.17;;;32.60;39.30;;;;;;6108441;29;20403;-77
2023/07/30 11:28:38;;;;;;;3.05;1.40;;;32.90;38.50;;;;;;6109052;29;20038;-77
2023/07/30 11:31:39;;;;;;;1.55;1.35;;;33.40;37.70;;;;;;6125434;29;20062;-80
2023/07/30 11:34:40;;;;;;;1.60;1.20;;;33.70;37.00;;;;;;6109691;29;20165;-77
2023/07/30 11:37:42;;;;;;;2.15;1.27;;;34.00;36.20;;;;;;6109884;29;20036;-77
2023/07/30 11:40:43;;;;;;;3.90;1.17;;;34.40;35.20;;;;;;6109058;29;20074;-77
2023/07/30 11:43:45;;;;;;;1.33;1.23;;;34.70;34.40;;;;;;6125889;29;20036;-78
2023/07/30 11:47:04;;;;;;;2.83;1.50;;;34.80;33.60;;;;;;6126852;29;20027;-77
2023/07/30 11:50:06;;;;;;;1.90;1.30;;;34.80;33.20;;;;;;6126353;29;20032;-79
2023/07/30 11:53:06;;;;;;;2.33;1.63;;;34.90;32.10;;;;;;6098011;29;20102;-79
2023/07/30 11:56:08;;;;;;;1.88;1.25;;;35.00;32.00;;;;;;6126180;29;20032;-77
2023/07/30 11:59:09;;;;;;;5.60;1.73;;;35.20;31.90;;;;;;6127234;29;20076;-78
2023/07/30 12:02:17;;;;;;;1.13;1.02;;;35.60;31.50;;;;;;6125629;29;20071;-77
2023/07/30 12:05:18;;;;;;;1.83;1.00;;;36.00;30.80;;;;;;6125591;29;20034;-78
2023/07/30 12:08:26;;;;;;;1.45;1.08;;;36.30;30.20;;;;;;6128649;29;20024;-79
2023/07/30 12:11:27;;;;;;;1.77;0.90;;;36.50;28.90;;;;;;6113842;29;20448;-78
2023/07/30 12:14:41;;;;;;;1.30;1.00;;;36.50;28.20;;;;;;6128950;29;20039;-78
2023/07/30 12:17:42;;;;;;;1.20;1.10;;;36.40;27.60;;;;;;6110485;29;20032;-78
2023/07/30 12:20:43;;;;;;;1.90;1.27;;;36.30;27.80;;;;;;6130690;29;20080;-79
2023/07/30 12:23:44;;;;;;;4.43;0.80;;;36.30;28.10;;;;;;6129454;29;20040;-77
2023/07/30 12:26:45;;;;;;;1.45;1.35;;;36.50;28.40;;;;;;6113348;29;20556;-79
2023/07/30 12:29:46;;;;;;;1.65;1.30;;;36.80;28.10;;;;;;6111412;29;20145;-78
2023/07/30 12:32:46;;;;;;;1.50;1.30;;;37.20;27.70;;;;;;6113933;29;20095;-79
2023/07/30 12:35:50;;;;;;;1.13;0.90;;;37.40;26.90;;;;;;6111555;29;20526;-78
2023/07/30 12:38:53;;;;;;;1.27;1.05;;;37.60;26.50;;;;;;6129664;29;20046;-77
2023/07/30 12:41:54;;;;;;;1.73;1.20;;;37.70;26.50;;;;;;6129018;29;20039;-78
2023/07/30 12:44:55;;;;;;;3.28;1.58;;;38.00;26.60;;;;;;6113455;29;20040;-78
2023/07/30 12:47:56;;;;;;;1.95;1.40;;;38.20;25.90;;;;;;6112760;29;20027;-77
2023/07/30 12:50:56;;;;;;;1.13;1.02;;;38.40;25.60;;;;;;6110960;29;20035;-78
2023/07/30 12:53:57;;;;;;;3.28;1.35;;;38.40;25.10;;;;;;6109595;29;20587;-76
2023/07/30 12:56:58;;;;;;;1.23;0.80;;;38.50;25.00;;;;;;6114214;29;20027;-79
2023/07/30 12:59:59;;;;;;;1.30;1.00;;;38.60;24.70;;;;;;6129480;29;20032;-78
2023/07/30 13:03:00;;;;;;;1.70;0.95;;;38.90;24.60;;;;;;6111346;29;20090;-78
2023/07/30 13:06:00;;;;;;;0.93;0.80;;;39.30;24.30;;;;;;6109532;29;20095;-77
2023/07/30 13:09:01;;;;;;;1.58;0.93;;;39.60;23.80;;;;;;6109931;29;20095;-77
2023/07/30 13:12:02;;;;;;;1.45;1.00;;;39.80;23.30;;;;;;6111019;29;20054;-78
2023/07/30 13:15:06;;;;;;;2.35;0.88;;;39.60;23.40;;;;;;6127405;29;20472;-78
2023/07/30 13:18:07;;;;;;;2.60;0.80;;;39.90;23.20;;;;;;6124453;29;20436;-77
2023/07/30 13:21:08;;;;;;;1.58;1.42;;;40.20;23.10;;;;;;6108687;29;20035;-76
2023/07/30 13:24:09;;;;;;;1.35;1.02;;;40.60;22.60;;;;;;6109852;29;20036;-80
2023/07/30 13:27:10;;;;;;;1.92;0.93;;;40.60;22.20;;;;;;6110303;29;20437;-78
2023/07/30 13:30:11;;;;;;;1.85;1.20;;;40.80;22.00;;;;;;6109208;29;20039;-76
2023/07/30 13:33:12;;;;;;;1.10;1.00;;;40.90;21.80;;;;;;6110185;29;20043;-78
2023/07/30 13:36:13;;;;;;;1.38;0.85;;;41.20;21.60;;;;;;6110692;29;20055;-78
2023/07/30 13:39:15;;;;;;;1.10;1.00;;;41.60;21.40;;;;;;6109259;29;20032;-78
2023/07/30 13:42:15;;;;;;;1.77;1.08;;;42.20;20.80;;;;;;6109420;29;20158;-78
2023/07/30 13:45:16;;;;;;;2.35;1.08;;;42.40;20.60;;;;;;6109026;29;20028;-78
2023/07/30 13:48:17;;;;;;;1.55;1.00;;;42.40;20.40;;;;;;6108518;29;20054;-78
2023/07/30 13:51:18;;;;;;;1.33;1.05;;;42.20;20.20;;;;;;6107467;29;20035;-78
2023/07/30 13:54:19;;;;;;;2.10;1.00;;;42.30;20.20;;;;;;6108241;29;20616;-76
2023/07/30 13:57:24;;;;;;;1.50;1.17;;;42.60;20.10;;;;;;6107456;29;20040;-75
2023/07/30 14:00:25;;;;;;;1.25;1.15;;;43.00;20.00;;;;;;6126516;29;20028;-77
2023/07/30 14:03:25;;;;;;;1.63;1.00;;;43.70;19.80;;;;;;6125547;29;20043;-77
2023/07/30 14:06:27;;;;;;;2.08;1.20;;;44.40;19.00;;;;;;6125152;29;20087;-77
2023/07/30 14:09:33;;;;;;;1.10;1.00;;;44.60;18.70;;;;;;6127045;29;20133;-79
2023/07/30 14:12:33;;;;;;;1.20;1.10;;;44.50;18.30;;;;;;6108075;29;20139;-76
2023/07/30 14:15:34;;;;;;;2.65;1.30;;;44.20;18.60;;;;;;6107705;29;20027;-79
2023/07/30 14:18:35;;;;;;;1.77;1.05;;;44.30;18.70;;;;;;6108924;29;20035;-77
2023/07/30 14:21:36;;;;;;;1.42;1.08;;;44.20;18.60;;;;;;6125463;29;20027;-77
2023/07/30 14:24:37;;;;;;;2.10;1.25;;;43.80;18.80;;;;;;6107870;29;20434;-77
2023/07/30 14:27:38;;;;;;;2.17;1.08;;;43.40;19.00;;;;;;6108245;29;20032;-79
2023/07/30 14:30:43;;;;;;;1.38;1.05;;;43.40;19.00;;;;;;6124060;29;20125;-77
2023/07/30 14:33:44;;;;;;;1.90;1.00;;;43.40;19.00;;;;;;6107535;29;20126;-76
2023/07/30 14:36:45;;;;;;;1.17;1.02;;;43.50;18.70;;;;;;6091685;29;20042;-78
2023/07/30 14:39:46;;;;;;;5.25;0.98;;;43.60;18.60;;;;;;6106980;29;20042;-75
2023/07/30 14:42:47;;;;;;;1.25;1.00;;;43.30;18.30;;;;;;6105594;29;20032;-77
2023/07/30 14:45:49;;;;;;;3.72;1.10;;;43.10;18.40;;;;;;6124431;29;20043;-77
2023/07/30 14:48:50;;;;;;;1.50;0.98;;;43.00;18.40;;;;;;6106441;29;20468;-76
2023/07/30 14:51:54;;;;;;;1.40;1.10;;;43.00;18.30;;;;;;6123744;29;20031;-76
2023/07/30 14:54:55;;;;;;;0.93;0.73;;;43.10;18.10;;;;;;6122797;29;20127;-78
2023/07/30 14:57:56;;;;;;;1.10;0.80;;;43.10;17.70;;;;;;6125011;29;20182;-78
2023/07/30 15:00:56;;;;;;;3.45;1.00;;;42.00;18.30;;;;;;6125179;29;20138;-76
2023/07/30 15:03:58;;;;;;;1.33;0.80;;;40.50;19.40;;;;;;6123557;29;20054;-77
2023/07/30 15:06:59;;;;;;;3.95;1.00;;;39.00;20.60;;;;;;6125050;29;20434;-76
2023/07/30 15:10:00;;;;;;;1.33;0.95;;;37.70;21.50;;;;;;6106716;29;20035;-76
2023/07/30 15:13:02;;;;;;;1.75;1.27;;;36.60;22.40;;;;;;6123439;29;20059;-77
2023/07/30 15:16:03;;;;;;;1.83;0.82;;;35.80;23.10;;;;;;6107167;29;20777;-78
2023/07/30 15:19:04;;;;;;;3.35;1.13;;;35.00;23.70;;;;;;6107375;29;20737;-78
2023/07/30 15:22:05;;;;;;;2.53;1.38;;;34.60;24.20;;;;;;6106897;29;20043;-77
2023/07/30 15:25:06;;;;;;;4.10;1.20;;;34.20;24.40;;;;;;6107569;29;20096;-78
2023/07/30 15:28:07;;;;;;;1.73;1.02;;;34.00;24.70;;;;;;6105923;29;20122;-76
2023/07/30 15:31:09;;;;;;;1.75;0.90;;;34.50;24.50;;;;;;6107053;29;20106;-76
2023/07/30 15:34:11;;;;;;;2.00;1.20;;;35.70;23.40;;;;;;6123050;29;20035;-76
2023/07/30 15:37:12;;;;;;;1.65;0.93;;;36.80;22.50;;;;;;6123609;29;20418;-77
2023/07/30 15:40:13;;;;;;;1.27;1.00;;;37.90;21.70;;;;;;6123937;29;20737;-76
2023/07/30 15:43:14;;;;;;;1.73;1.15;;;38.80;21.10;;;;;;6110130;29;20031;-78